Details From RJAA - Narita Intl
To NTAA - Faaa
Flight Number -
Tags Generated
Created
Modified
Stats Distance 5,102 nm / 9,449 km
Max Altitude 0 ft / 0 m
Waypoints 3
Social Downloads 0
Likes 0
Share VATSIM

Download

Looking for another format? Having issues loading an existing format? Contact us
Advertisement - Login to hide

Notes

Generated

Route

RJAA BOBBY NTAA

ID Type Via Altitude Latitude Longitude Leg Dist Tot Dist Heading (true) Name
O RJAA APT - 0 ft / 0 m 35.80271˚ 140.37991˚ - 0 nm - -
BOBBY FIX - 0 ft / 0 m -17.50722˚ -149.66806˚ 5097 nm 5097 nm 116° / 130° -
O NTAA APT - 0 ft / 0 m -17.56288˚ -149.62043˚ 4 nm 5102 nm 141° / 141° -

Altitude Profile

Advertisement - Login to hide

Weather


0- 5 10 15 20 25 30 35+ Temperature / ° C

Clouds and Precipitation
Forecast for 2017-12-12 12:00 UTC. Updated an hour ago

Ground ~20,000 ft ~40,000 ft Winds

RJAA

Details ICAO RJAA (NRT)
Name NARITA INTL
Region Japan
Timezone Asia/Tokyo (UTC+9.0)
Stats Elevation 141 ft / 43 m (AMSL)
Location 35.776552° 140.382770°
Runways 2
Magnetic Variation 7.405° W

METAR

RJAA 121230Z 25003KT 210V320 9999 FEW030 BKN/// 04/M07 Q1013 NOSIG RMK 1CU030 A2993 MOD CHOP OBS AT 1210Z SUIGO 10000FT IN DES B777 KAL705

Decode

TAF

TAF RJAA 121105Z 1212/1318 32006KT 9999 FEW030= TAF RJBB 121105Z 1212/1318 30020KT 9999 FEW020 BKN050 TEMPO 1303/1306 30023G33KT BECMG 1312/1315 34015KT

Decode

Departure Runways

ID Width Length Bearing (true) Bearing (mag) Surface Threshold Offset Overrun Length
16L 196 ft / 60 m 7,162 ft / 2,183 m 149.61° 157.01° Asphalt 190 ft / 58 m 0 ft / 0 m
16R 196 ft / 60 m 13,142 ft / 4,006 m 149.61° 157.01° Asphalt 0 ft / 0 m 410 ft / 125 m
34L 196 ft / 60 m 13,142 ft / 4,006 m 329.62° 337.02° Asphalt 0 ft / 0 m 415 ft / 126 m
34R 196 ft / 60 m 7,162 ft / 2,183 m 329.62° 337.02° Asphalt 190 ft / 58 m 0 ft / 0 m

NTAA

Details ICAO NTAA (PPT)
Name Faaa
Region French Polynesia
Timezone Pacific/Tahiti (UTC-10.0)
Stats Elevation 5 ft / 2 m (AMSL)
Location -17.553765° -149.607255°
Runways 1
Magnetic Variation 12.875° E

METAR

NTAA 121230Z 09004KT 9999 FEW023 SCT300 26/21 Q1009 NOSIG

Decode

TAF

TAF NTAA 121100Z 1212/1318 VRB03KT 9999 FEW020 SCT050 BECMG 1219/1220 03013KT PROB30 TEMPO 1223/1303 04012G22KT 4900 SHRA FEW013 SCT018 BKN045 BECMG 1303/1305 VRB03KT

Decode

Destination Runways

ID Width Length Bearing (true) Bearing (mag) Surface Threshold Offset Overrun Length
04 148 ft / 45 m 11,323 ft / 3,451 m 54.04° 41.16° Asphalt 1,099 ft / 335 m 0 ft / 0 m
22 148 ft / 45 m 11,323 ft / 3,451 m 234.03° 221.15° Asphalt 479 ft / 146 m 0 ft / 0 m

Approach Navaids

Runway Type Ident Frequency Range Bearing (true) Bearing (mag) Slope Elevation
04 Localiser PT 109.90 MHz 18 nm / 33 km 54.05° 41.18° - 20 ft / 6 m (AMSL)
04 Glidescope PT 109.90 MHz 10 nm / 19 km 54.03° 41.16° 3.00° 59 ft / 18 m (AMSL)
04 DME PT 109.90 MHz 18 nm / 33 km - - - 59 ft / 18 m (AMSL)

Popular Alternatives